createdAt,value
2023-06-03T00:00:55.880Z,65.91
2023-06-03T00:03:44.841Z,66.28
2023-06-03T00:06:13.386Z,66.60
2023-06-03T00:08:40.481Z,66.83
2023-06-03T00:11:07.309Z,66.94
2023-06-03T00:13:34.591Z,67.29
2023-06-03T00:16:01.217Z,67.32
2023-06-03T00:18:27.899Z,67.54
2023-06-03T00:20:55.816Z,67.73
2023-06-03T00:23:22.398Z,68.00
2023-06-03T00:25:48.888Z,68.37
2023-06-03T00:28:15.627Z,68.56
2023-06-03T00:30:42.210Z,68.74
2023-06-03T00:33:08.619Z,68.84
2023-06-03T00:35:36.770Z,69.13
2023-06-03T00:38:03.931Z,69.17
2023-06-03T00:40:32.182Z,69.25
2023-06-03T00:42:59.870Z,69.64
2023-06-03T00:45:26.305Z,70.02
2023-06-03T00:47:52.964Z,69.97
2023-06-03T00:50:19.403Z,70.07
2023-06-03T00:52:47.038Z,70.44
2023-06-03T00:55:13.626Z,70.78
2023-06-03T00:57:40.113Z,70.74
2023-06-03T01:00:07.397Z,71.07
2023-06-03T01:02:36.933Z,71.18
2023-06-03T01:05:08.493Z,71.62
2023-06-03T01:07:47.620Z,71.73
2023-06-03T01:10:46.734Z,71.69
2023-06-03T01:13:37.071Z,72.02
2023-06-03T01:16:05.515Z,72.28
2023-06-03T01:18:35.596Z,72.25
2023-06-03T01:21:03.766Z,72.26
2023-06-03T01:23:34.278Z,72.10
2023-06-03T01:26:04.969Z,72.51
2023-06-03T01:28:31.791Z,72.36
2023-06-03T01:31:02.063Z,72.68
2023-06-03T01:33:29.999Z,72.68
2023-06-03T01:35:58.883Z,72.96
2023-06-03T01:38:26.146Z,73.14
2023-06-03T01:40:53.557Z,73.33
2023-06-03T01:43:20.644Z,73.59
2023-06-03T01:45:47.306Z,73.66
2023-06-03T01:48:14.626Z,74.01
2023-06-03T01:50:44.649Z,74.05
2023-06-03T01:53:12.733Z,74.32
2023-06-03T01:55:39.510Z,74.34
2023-06-03T01:58:06.073Z,74.39
2023-06-03T02:00:32.703Z,74.51
2023-06-03T02:02:59.220Z,74.80
2023-06-03T02:05:25.772Z,75.12
2023-06-03T02:07:52.112Z,75.03
2023-06-03T02:10:18.689Z,75.10
2023-06-03T02:12:44.993Z,75.57
2023-06-03T02:15:11.395Z,75.70
2023-06-03T02:17:37.822Z,75.87
2023-06-03T02:20:08.931Z,76.28
2023-06-03T02:22:35.817Z,76.19
2023-06-03T02:25:05.966Z,76.41
2023-06-03T02:27:32.356Z,76.59
2023-06-03T02:29:58.859Z,76.86
2023-06-03T02:32:25.252Z,76.92
2023-06-03T02:34:52.108Z,76.62
2023-06-03T02:37:18.470Z,76.65
2023-06-03T02:39:45.312Z,76.63
2023-06-03T02:42:12.333Z,76.23
2023-06-03T02:44:39.286Z,76.47
2023-06-03T02:47:06.429Z,76.27
2023-06-03T02:49:33.989Z,76.30
2023-06-03T02:52:00.934Z,75.84
2023-06-03T02:54:27.419Z,75.65
2023-06-03T02:56:53.806Z,75.76
2023-06-03T02:59:20.238Z,76.06
2023-06-03T03:01:46.806Z,76.04
2023-06-03T03:04:13.235Z,75.79
2023-06-03T03:06:41.128Z,75.44
2023-06-03T03:09:08.146Z,75.40
2023-06-03T03:11:34.865Z,75.33
2023-06-03T03:14:02.608Z,74.96
2023-06-03T03:16:29.008Z,74.44
2023-06-03T03:18:55.647Z,74.25
2023-06-03T03:21:22.214Z,74.59
2023-06-03T03:23:51.767Z,74.33
2023-06-03T03:26:22.137Z,74.34
2023-06-03T03:28:49.461Z,74.02
2023-06-03T03:31:16.873Z,73.66
2023-06-03T03:33:43.387Z,73.37
2023-06-03T03:36:14.127Z,73.33
2023-06-03T03:38:41.567Z,73.02
2023-06-03T03:41:08.112Z,73.12
2023-06-03T03:43:35.415Z,72.81
2023-06-03T03:46:02.224Z,72.69
2023-06-03T03:48:30.687Z,72.44
2023-06-03T03:50:57.249Z,71.82
2023-06-03T03:53:29.955Z,71.69
2023-06-03T03:55:57.880Z,71.68
2023-06-03T03:58:41.593Z,71.69
2023-06-03T04:01:24.889Z,71.67
2023-06-03T04:03:53.504Z,71.51
2023-06-03T04:06:33.208Z,70.96
2023-06-03T04:09:01.141Z,70.94
2023-06-03T04:11:29.641Z,70.84
2023-06-03T04:13:57.828Z,70.43
2023-06-03T04:16:45.960Z,70.47
2023-06-03T04:19:31.275Z,70.31
2023-06-03T04:21:58.686Z,70.21
2023-06-03T04:24:26.254Z,70.31
2023-06-03T04:26:53.885Z,69.93
2023-06-03T04:29:20.538Z,69.49
2023-06-03T04:31:46.925Z,69.06
2023-06-03T04:34:13.706Z,68.97
2023-06-03T04:36:40.066Z,68.58
2023-06-03T04:39:09.029Z,68.37
2023-06-03T04:41:39.223Z,68.12
2023-06-03T04:44:05.682Z,68.00
2023-06-03T04:46:32.570Z,67.66
2023-06-03T04:49:02.829Z,67.20
2023-06-03T04:51:35.744Z,67.33
2023-06-03T04:54:04.160Z,67.51
2023-06-03T04:56:31.204Z,67.29
2023-06-03T04:59:01.131Z,66.74
2023-06-03T05:01:28.476Z,66.52
2023-06-03T05:03:56.382Z,66.33
2023-06-03T05:06:24.058Z,65.75
2023-06-03T05:08:51.858Z,65.84
2023-06-03T05:11:19.474Z,65.58
2023-06-03T05:13:46.475Z,65.07
2023-06-03T05:16:13.567Z,64.85
2023-06-03T05:18:40.760Z,64.66
2023-06-03T05:21:08.219Z,64.78
2023-06-03T05:23:35.060Z,64.02
2023-06-03T05:26:01.580Z,63.74
2023-06-03T05:28:28.144Z,63.66
2023-06-03T05:30:54.888Z,63.47
2023-06-03T05:33:29.387Z,63.15
2023-06-03T05:35:56.743Z,62.94
2023-06-03T05:38:24.084Z,62.29
2023-06-03T05:40:51.665Z,62.21
2023-06-03T05:43:19.021Z,62.36
2023-06-03T05:45:46.889Z,61.20
2023-06-03T05:48:13.856Z,60.33
2023-06-03T05:50:48.969Z,59.03
2023-06-03T05:53:15.568Z,57.49
2023-06-03T05:55:43.344Z,56.38
2023-06-03T05:58:09.698Z,54.43
2023-06-03T06:00:37.241Z,53.80
2023-06-03T06:03:03.764Z,52.76
2023-06-03T06:05:30.231Z,51.48
2023-06-03T06:07:56.966Z,50.69
2023-06-03T06:10:23.485Z,49.86
2023-06-03T06:12:49.878Z,49.27
2023-06-03T06:15:16.260Z,47.28
2023-06-03T06:17:45.991Z,46.96
2023-06-03T06:20:12.852Z,47.11
2023-06-03T06:22:39.816Z,45.64
2023-06-03T06:25:07.543Z,44.89
2023-06-03T06:27:34.977Z,44.19
2023-06-03T06:30:03.327Z,43.55
2023-06-03T06:39:36.251Z,41.35
2023-06-03T06:42:13.043Z,41.40
2023-06-03T06:44:49.323Z,41.35
2023-06-03T06:47:25.593Z,40.80
2023-06-03T06:50:00.488Z,39.77
2023-06-03T06:52:30.921Z,40.37
2023-06-03T06:55:00.382Z,39.45
2023-06-03T06:57:30.032Z,39.71
2023-06-03T06:59:57.922Z,40.04
2023-06-03T07:02:26.792Z,39.58
2023-06-03T07:04:54.694Z,38.96
2023-06-03T07:07:22.445Z,39.74
2023-06-03T07:09:50.675Z,38.48
2023-06-03T07:12:18.614Z,38.35
2023-06-03T07:14:46.535Z,36.72
2023-06-03T07:17:15.572Z,37.12
2023-06-03T07:19:43.310Z,36.70
2023-06-03T07:22:11.095Z,35.81
2023-06-03T07:24:40.113Z,35.52
2023-06-03T07:27:09.087Z,34.68
2023-06-03T07:29:39.587Z,34.58
2023-06-03T07:32:09.221Z,33.57
2023-06-03T07:34:38.136Z,32.47
2023-06-03T07:37:12.921Z,32.35
2023-06-03T07:39:42.452Z,32.60
2023-06-03T07:42:23.097Z,32.12
2023-06-03T07:44:51.165Z,31.80
2023-06-03T07:47:19.114Z,31.36
2023-06-03T07:49:49.378Z,31.31
2023-06-03T07:52:19.936Z,31.20
2023-06-03T07:54:48.487Z,31.03
2023-06-03T07:57:17.154Z,32.19
2023-06-03T07:59:56.447Z,31.18
2023-06-03T08:02:24.847Z,30.55
2023-06-03T08:04:57.421Z,30.80
2023-06-03T08:07:26.421Z,30.89
2023-06-03T08:09:54.442Z,32.80
2023-06-03T08:12:32.655Z,32.47
2023-06-03T08:15:02.539Z,30.71
2023-06-03T08:17:42.228Z,29.78
2023-06-03T08:20:11.462Z,29.63
2023-06-03T08:22:46.200Z,30.36
2023-06-03T08:25:14.576Z,30.87
2023-06-03T08:27:42.475Z,31.08
2023-06-03T08:30:14.151Z,29.64
2023-06-03T08:32:43.253Z,30.01
2023-06-03T08:35:17.929Z,29.51
2023-06-03T08:37:46.134Z,29.85
2023-06-03T08:40:18.192Z,29.74
2023-06-03T08:42:48.782Z,30.60
2023-06-03T08:45:19.186Z,28.77
2023-06-03T08:48:02.115Z,28.90
2023-06-03T08:50:30.086Z,28.14
2023-06-03T08:52:59.345Z,27.74
2023-06-03T08:55:27.952Z,28.61
2023-06-03T08:58:03.594Z,28.97
2023-06-03T09:00:31.867Z,29.49
2023-06-03T09:03:00.258Z,27.13
2023-06-03T09:05:29.177Z,26.52
2023-06-03T09:07:57.873Z,25.85
2023-06-03T09:10:27.407Z,26.57
2023-06-03T09:12:58.829Z,27.21
2023-06-03T09:15:27.456Z,27.47
2023-06-03T09:17:55.288Z,27.14
2023-06-03T09:20:24.915Z,27.35
2023-06-03T09:22:53.780Z,27.39
2023-06-03T09:25:21.600Z,26.29
2023-06-03T09:27:49.558Z,25.10
2023-06-03T09:30:20.433Z,24.01
2023-06-03T09:32:48.287Z,24.24
2023-06-03T09:35:16.450Z,23.64
2023-06-03T09:37:59.456Z,24.64
2023-06-03T09:40:32.631Z,25.36
2023-06-03T09:43:00.930Z,26.02
2023-06-03T09:45:30.661Z,24.68
2023-06-03T09:47:59.743Z,25.38
2023-06-03T09:50:30.111Z,24.24
2023-06-03T09:52:58.962Z,23.21
2023-06-03T09:55:37.665Z,23.90
2023-06-03T09:58:10.013Z,23.62
2023-06-03T10:01:00.397Z,23.46
2023-06-03T10:04:16.318Z,22.79
2023-06-03T10:07:15.834Z,22.53
2023-06-03T10:09:51.176Z,22.11
2023-06-03T10:12:34.117Z,21.57
2023-06-03T10:15:04.866Z,21.69
2023-06-03T10:17:47.681Z,20.74
2023-06-03T10:20:34.425Z,20.80
2023-06-03T10:23:06.528Z,20.61
2023-06-03T10:25:58.343Z,20.70
2023-06-03T10:28:38.364Z,20.68
2023-06-03T10:31:14.322Z,19.85
2023-06-03T10:33:42.685Z,20.83
2023-06-03T10:36:13.221Z,22.04
2023-06-03T10:38:41.778Z,21.43
2023-06-03T10:41:12.201Z,19.93
2023-06-03T10:43:43.185Z,20.50
2023-06-03T10:46:13.389Z,20.83
2023-06-03T10:48:45.425Z,20.97
2023-06-03T10:51:48.149Z,20.29
2023-06-03T10:54:31.430Z,19.00
2023-06-03T10:57:07.823Z,19.19
2023-06-03T10:59:44.684Z,20.46
2023-06-03T11:02:13.699Z,20.53
2023-06-03T11:04:42.020Z,21.12
2023-06-03T11:07:42.465Z,20.96
2023-06-03T11:10:37.013Z,19.72
2023-06-03T11:21:52.972Z,19.65
2023-06-03T11:24:39.443Z,18.77
2023-06-03T11:27:13.519Z,18.17
2023-06-03T11:29:47.132Z,17.72
2023-06-03T11:32:16.212Z,18.35
2023-06-03T11:34:48.755Z,18.20
2023-06-03T11:37:21.048Z,18.05
2023-06-03T11:40:08.682Z,18.16
2023-06-03T11:42:45.786Z,17.27
2023-06-03T11:45:22.762Z,16.59
2023-06-03T11:47:51.045Z,16.88
2023-06-03T11:50:20.548Z,17.32
2023-06-03T11:52:50.666Z,17.74
2023-06-03T11:55:25.497Z,16.87
2023-06-03T11:57:53.585Z,17.38
2023-06-03T12:00:21.782Z,17.19
2023-06-03T12:02:49.853Z,17.17
2023-06-03T12:05:19.012Z,17.41
2023-06-03T12:08:05.935Z,17.25
2023-06-03T12:10:42.048Z,17.40
2023-06-03T12:13:12.522Z,17.23
2023-06-03T12:15:50.007Z,17.43
2023-06-03T12:18:17.847Z,16.91
2023-06-03T12:20:48.986Z,16.76
2023-06-03T12:23:21.900Z,16.46
2023-06-03T12:25:56.657Z,16.75
2023-06-03T12:28:26.093Z,16.66
2023-06-03T12:30:53.990Z,16.47
2023-06-03T12:33:21.868Z,16.61
2023-06-03T12:35:57.446Z,16.42
2023-06-03T12:38:25.645Z,16.37
2023-06-03T12:41:09.247Z,15.93
2023-06-03T12:43:37.125Z,16.14
2023-06-03T12:46:18.609Z,17.15
2023-06-03T12:48:46.475Z,17.62
2023-06-03T12:51:34.656Z,17.26
2023-06-03T12:54:02.711Z,16.73
2023-06-03T12:56:30.529Z,17.83
2023-06-03T12:58:59.032Z,17.55
2023-06-03T13:01:27.809Z,17.15
2023-06-03T13:03:56.704Z,16.91
2023-06-03T13:06:25.513Z,16.67
2023-06-03T13:08:53.679Z,16.81
2023-06-03T13:11:22.874Z,17.69
2023-06-03T13:13:50.901Z,17.31
2023-06-03T13:16:19.009Z,16.82
2023-06-03T13:18:46.822Z,17.24
2023-06-03T13:21:14.573Z,16.92
2023-06-03T13:23:42.608Z,17.21
2023-06-03T13:26:10.490Z,16.79
2023-06-03T13:28:38.772Z,16.92
2023-06-03T13:31:07.071Z,16.70
2023-06-03T13:33:35.598Z,16.31
2023-06-03T13:36:03.848Z,16.50
2023-06-03T13:38:37.363Z,17.13
2023-06-03T13:41:07.073Z,18.01
2023-06-03T13:43:36.192Z,17.54
2023-06-03T13:46:04.095Z,17.35
2023-06-03T13:48:32.995Z,18.28
2023-06-03T13:51:02.371Z,17.91
2023-06-03T13:53:30.398Z,18.20
2023-06-03T13:55:58.848Z,18.24
2023-06-03T13:58:27.062Z,17.71
2023-06-03T14:00:54.816Z,17.49
2023-06-03T14:03:22.655Z,16.84
2023-06-03T14:05:51.253Z,17.46
2023-06-03T14:08:20.795Z,17.91
2023-06-03T14:10:48.902Z,17.69
2023-06-03T14:13:16.812Z,17.34
2023-06-03T14:15:44.711Z,17.05
2023-06-03T14:18:12.459Z,17.25
2023-06-03T14:20:40.319Z,16.78
2023-06-03T14:23:08.482Z,16.33
2023-06-03T14:25:36.374Z,16.22
2023-06-03T14:28:04.333Z,16.28
2023-06-03T14:30:56.176Z,16.80
2023-06-03T14:33:30.228Z,17.15
2023-06-03T14:35:58.839Z,17.71
2023-06-03T14:38:34.065Z,17.64
2023-06-03T14:41:07.578Z,17.37
2023-06-03T14:43:42.215Z,16.98
2023-06-03T14:46:12.631Z,16.68
2023-06-03T14:48:43.127Z,16.38
2023-06-03T14:51:13.166Z,16.32
2023-06-03T14:53:47.137Z,15.81
2023-06-03T14:56:18.144Z,15.37
2023-06-03T14:58:51.826Z,15.55
2023-06-03T15:01:22.163Z,15.12
2023-06-03T15:03:54.666Z,15.45
2023-06-03T15:06:26.152Z,15.50
2023-06-03T15:09:16.612Z,15.00
2023-06-03T15:11:49.871Z,15.04
2023-06-03T15:14:37.168Z,15.94
2023-06-03T15:17:06.033Z,15.86
2023-06-03T15:19:34.191Z,16.11
2023-06-03T15:25:29.187Z,15.12
2023-06-03T15:27:57.496Z,14.80
2023-06-03T15:30:26.035Z,14.81
2023-06-03T15:32:54.435Z,13.96
2023-06-03T15:35:22.731Z,14.50
2023-06-03T15:44:55.933Z,14.50
2023-06-03T15:47:25.719Z,14.35
2023-06-03T15:49:59.475Z,14.45
2023-06-03T15:52:27.963Z,16.36
2023-06-03T15:54:57.390Z,17.71
2023-06-03T15:57:25.804Z,19.29
2023-06-03T15:59:54.036Z,19.75
2023-06-03T16:02:22.538Z,19.84
2023-06-03T16:04:51.396Z,21.03
2023-06-03T16:07:19.793Z,21.88
2023-06-03T16:09:48.271Z,22.18
2023-06-03T16:12:16.960Z,22.79
2023-06-03T16:14:45.629Z,23.03
2023-06-03T16:17:13.589Z,23.26
2023-06-03T16:19:42.726Z,23.72
2023-06-03T16:22:10.931Z,23.88
2023-06-03T16:24:39.084Z,23.85
2023-06-03T16:27:08.471Z,23.07
2023-06-03T16:29:37.026Z,24.57
2023-06-03T16:39:12.807Z,25.55
2023-06-03T16:41:43.355Z,25.51
2023-06-03T16:44:11.493Z,25.03
2023-06-03T16:46:39.232Z,25.10
2023-06-03T16:49:07.403Z,25.36
2023-06-03T16:51:35.849Z,25.71
2023-06-03T16:54:03.993Z,25.93
2023-06-03T16:56:32.294Z,25.99
2023-06-03T16:59:00.778Z,26.59
2023-06-03T17:01:28.537Z,26.13
2023-06-03T17:03:58.433Z,26.13
2023-06-03T17:06:26.358Z,26.87
2023-06-03T17:08:54.811Z,27.40
2023-06-03T17:11:23.206Z,27.00
2023-06-03T17:13:51.274Z,26.66
2023-06-03T17:16:19.020Z,26.16
2023-06-03T17:18:47.059Z,26.54
2023-06-03T17:21:15.049Z,27.29
2023-06-03T17:23:42.842Z,27.78
2023-06-03T17:26:10.598Z,28.48
2023-06-03T17:28:38.795Z,28.86
2023-06-03T17:31:06.870Z,28.65
2023-06-03T17:33:35.021Z,28.98
2023-06-03T17:36:02.865Z,29.29
2023-06-03T17:38:30.833Z,29.42
2023-06-03T17:40:58.611Z,29.30
2023-06-03T17:43:26.839Z,29.40
2023-06-03T17:45:54.558Z,30.11
2023-06-03T17:48:22.647Z,30.10
2023-06-03T17:50:50.701Z,29.67
2023-06-03T17:53:18.500Z,30.59
2023-06-03T17:55:46.558Z,30.53
2023-06-03T17:58:14.745Z,31.33
2023-06-03T18:00:42.593Z,31.38
2023-06-03T18:03:11.406Z,32.27
2023-06-03T18:05:39.719Z,32.49
2023-06-03T18:08:07.643Z,32.66
2023-06-03T18:10:35.656Z,33.09
2023-06-03T18:13:06.348Z,33.62
2023-06-03T18:15:36.309Z,34.10
2023-06-03T18:18:04.546Z,34.54
2023-06-03T18:20:32.558Z,35.22
2023-06-03T18:23:00.634Z,35.63
2023-06-03T18:25:28.414Z,36.79
2023-06-03T18:27:56.497Z,37.12
2023-06-03T18:30:24.269Z,37.79
2023-06-03T18:32:52.138Z,37.79
2023-06-03T18:35:20.487Z,37.76
2023-06-03T18:37:49.460Z,38.25
2023-06-03T18:40:17.682Z,38.67
2023-06-03T18:42:45.871Z,38.95
2023-06-03T18:45:14.754Z,39.58
2023-06-03T18:47:44.947Z,39.94
2023-06-03T18:50:13.391Z,40.09
2023-06-03T18:52:41.304Z,40.31
2023-06-03T18:55:09.861Z,40.82
2023-06-03T18:57:37.723Z,41.12
2023-06-03T19:00:07.656Z,41.07
2023-06-03T19:02:36.317Z,41.30
2023-06-03T19:05:10.298Z,41.52
2023-06-03T19:07:38.464Z,41.82
2023-06-03T19:10:07.824Z,41.80
2023-06-03T19:12:36.605Z,41.61
2023-06-03T19:15:05.554Z,41.83
2023-06-03T19:17:38.621Z,42.01
2023-06-03T19:20:08.573Z,41.74
2023-06-03T19:22:40.635Z,42.22
2023-06-03T19:25:10.178Z,42.50
2023-06-03T19:27:39.535Z,42.69
2023-06-03T19:30:08.553Z,43.13
2023-06-03T19:32:37.918Z,43.52
2023-06-03T19:35:08.629Z,43.68
2023-06-03T19:38:31.405Z,43.49
2023-06-03T19:40:59.274Z,44.19
2023-06-03T19:43:27.309Z,43.88
2023-06-03T19:45:55.295Z,43.80
2023-06-03T19:48:24.592Z,43.65
2023-06-03T19:50:55.002Z,43.56
2023-06-03T19:53:23.750Z,43.98
2023-06-03T19:55:51.738Z,44.34
2023-06-03T19:58:19.517Z,44.85
2023-06-03T20:00:48.337Z,45.69
2023-06-03T20:03:17.059Z,45.80
2023-06-03T20:05:45.339Z,46.18
2023-06-03T20:08:13.336Z,46.39
2023-06-03T20:10:42.201Z,45.87
2023-06-03T20:13:21.307Z,45.63
2023-06-03T20:15:57.849Z,45.70
2023-06-03T20:18:26.793Z,46.44
2023-06-03T20:20:54.863Z,46.54
2023-06-03T20:23:22.984Z,46.57
2023-06-03T20:25:51.073Z,46.67
2023-06-03T20:28:19.066Z,47.37
2023-06-03T20:30:47.123Z,47.44
2023-06-03T20:33:15.055Z,47.53
2023-06-03T20:35:43.576Z,47.52
2023-06-03T20:38:13.520Z,46.81
2023-06-03T20:40:42.686Z,46.83
2023-06-03T20:43:10.888Z,46.88
2023-06-03T20:45:43.101Z,47.03
2023-06-03T20:48:12.271Z,47.72
2023-06-03T20:50:40.508Z,48.01
2023-06-03T20:53:10.714Z,48.40
2023-06-03T20:59:16.469Z,49.18
2023-06-03T21:01:44.212Z,49.68
2023-06-03T21:04:12.494Z,50.22
2023-06-03T21:06:42.550Z,50.42
2023-06-03T21:09:11.791Z,50.73
2023-06-03T21:11:39.616Z,51.17
2023-06-03T21:14:07.410Z,51.51
2023-06-03T21:16:35.881Z,51.58
2023-06-03T21:19:03.866Z,51.80
2023-06-03T21:21:31.643Z,52.21
2023-06-03T21:23:59.899Z,52.51
2023-06-03T21:26:27.884Z,53.06
2023-06-03T21:28:55.774Z,53.01
2023-06-03T21:31:23.641Z,53.39
2023-06-03T21:33:51.526Z,53.69
2023-06-03T21:36:19.372Z,53.37
2023-06-03T21:38:47.023Z,53.87
2023-06-03T21:41:14.712Z,53.95
2023-06-03T21:43:42.674Z,54.30
2023-06-03T21:46:11.106Z,54.57
2023-06-03T21:48:40.185Z,54.83
2023-06-03T21:51:08.049Z,55.11
2023-06-03T21:53:35.993Z,55.20
2023-06-03T21:56:03.876Z,55.60
2023-06-03T21:58:31.812Z,55.89
2023-06-03T22:00:59.606Z,55.93
2023-06-03T22:03:27.353Z,56.24
2023-06-03T22:05:55.501Z,56.48
2023-06-03T22:08:23.240Z,56.57
2023-06-03T22:10:51.648Z,56.57
2023-06-03T22:13:19.447Z,56.87
2023-06-03T22:15:47.268Z,57.26
2023-06-03T22:18:15.985Z,57.57
2023-06-03T22:20:43.910Z,57.73
2023-06-03T22:23:11.801Z,57.78
2023-06-03T22:25:39.532Z,58.17
2023-06-03T22:28:07.500Z,58.34
2023-06-03T22:30:35.302Z,58.64
2023-06-03T22:33:03.915Z,59.18
2023-06-03T22:35:32.129Z,59.47
2023-06-03T22:38:00.676Z,59.43
2023-06-03T22:40:28.480Z,59.52
2023-06-03T22:42:56.205Z,59.67
2023-06-03T22:45:23.951Z,60.11
2023-06-03T22:47:52.295Z,60.44
2023-06-03T22:50:20.046Z,60.66
2023-06-03T22:52:47.823Z,60.73
2023-06-03T22:55:15.716Z,60.88
2023-06-03T22:57:43.527Z,61.02
2023-06-03T23:00:12.369Z,61.12
2023-06-03T23:02:40.399Z,61.07
2023-06-03T23:05:08.624Z,60.93
2023-06-03T23:07:36.589Z,61.09
2023-06-03T23:10:04.692Z,61.19
2023-06-03T23:12:32.562Z,61.49
2023-06-03T23:15:00.422Z,61.82
2023-06-03T23:17:28.253Z,61.91
2023-06-03T23:19:56.004Z,62.02
2023-06-03T23:22:23.735Z,62.16
2023-06-03T23:24:51.517Z,62.34
2023-06-03T23:27:19.333Z,62.59
2023-06-03T23:29:47.389Z,62.71
2023-06-03T23:32:15.116Z,62.85
2023-06-03T23:34:42.890Z,63.07
2023-06-03T23:37:10.818Z,63.22
2023-06-03T23:39:38.506Z,63.31
2023-06-03T23:42:07.982Z,63.87
2023-06-03T23:44:35.733Z,63.98
2023-06-03T23:47:03.641Z,64.37
2023-06-03T23:49:31.309Z,64.42
2023-06-03T23:51:59.114Z,64.44
2023-06-03T23:54:27.032Z,64.58
2023-06-03T23:56:54.850Z,65.22
2023-06-03T23:59:22.517Z,65.14
